createdAt,value
2022-08-26T00:00:06.056Z,22.90
2022-08-26T00:02:58.940Z,22.80
2022-08-26T00:05:46.153Z,22.80
2022-08-26T00:16:59.780Z,22.80
2022-08-26T00:22:32.994Z,22.90
2022-08-26T00:28:05.929Z,23.00
2022-08-26T00:33:40.129Z,22.90
2022-08-26T00:36:25.996Z,22.80
2022-08-26T00:47:43.987Z,22.70
2022-08-26T00:50:36.020Z,22.60
2022-08-26T00:56:31.765Z,22.50
2022-08-26T01:04:56.492Z,22.40
2022-08-26T01:10:31.209Z,22.30
2022-08-26T01:13:17.166Z,22.20
2022-08-26T01:16:10.445Z,22.10
2022-08-26T01:19:02.091Z,22.10
2022-08-26T01:22:06.494Z,22.10
2022-08-26T01:24:52.085Z,22.10
2022-08-26T01:30:27.151Z,22.00
2022-08-26T01:33:17.484Z,22.00
2022-08-26T01:44:26.791Z,22.00
2022-08-26T01:47:16.235Z,22.00
2022-08-26T01:50:09.073Z,21.90
2022-08-26T01:52:56.761Z,21.90
2022-08-26T01:55:46.357Z,20.70
2022-08-26T01:58:45.220Z,21.00
2022-08-26T02:04:20.832Z,21.80
2022-08-26T02:07:09.328Z,21.80
2022-08-26T02:29:32.837Z,21.60
2022-08-26T02:35:04.104Z,21.50
2022-08-26T02:37:50.912Z,21.50
2022-08-26T02:40:40.849Z,21.50
2022-08-26T02:49:17.043Z,21.40
2022-08-26T03:17:05.596Z,21.30
2022-08-26T03:19:54.710Z,21.30
2022-08-26T03:25:28.974Z,21.30
2022-08-26T03:28:14.435Z,21.20
2022-08-26T03:31:03.763Z,21.10
2022-08-26T03:36:37.410Z,21.00
2022-08-26T03:39:22.922Z,20.90
2022-08-26T03:44:57.116Z,20.80
2022-08-26T03:56:06.643Z,20.70
2022-08-26T03:58:52.978Z,20.70
2022-08-26T04:01:38.753Z,20.70
2022-08-26T04:07:09.974Z,20.70
2022-08-26T04:09:57.269Z,20.60
2022-08-26T04:18:14.762Z,20.60
2022-08-26T04:21:00.286Z,20.60
2022-08-26T04:23:47.233Z,20.50
2022-08-26T04:26:39.545Z,20.60
2022-08-26T04:43:30.591Z,20.60
2022-08-26T04:46:19.785Z,20.60
2022-08-26T04:51:53.975Z,20.60
2022-08-26T04:54:41.956Z,20.50
2022-08-26T04:57:27.615Z,20.60
2022-08-26T05:00:13.775Z,20.50
2022-08-26T05:05:47.684Z,20.60
2022-08-26T05:14:07.944Z,20.50
2022-08-26T05:36:21.092Z,20.70
2022-08-26T05:41:56.159Z,20.60
2022-08-26T05:44:53.603Z,20.60
2022-08-26T05:53:17.423Z,20.70
2022-08-26T06:15:59.201Z,21.20
2022-08-26T06:18:46.784Z,21.20
2022-08-26T06:21:39.098Z,21.20
2022-08-26T06:24:43.039Z,21.20
2022-08-26T06:27:32.600Z,21.20
2022-08-26T06:30:19.669Z,21.20
2022-08-26T06:35:55.911Z,21.50
2022-08-26T06:38:41.934Z,21.60
2022-08-26T06:41:28.062Z,21.70
2022-08-26T06:44:15.186Z,21.60
2022-08-26T06:47:00.965Z,21.70
2022-08-26T06:49:46.403Z,21.80
2022-08-26T06:52:32.109Z,22.00
2022-08-26T06:55:17.873Z,22.00
2022-08-26T06:58:03.876Z,22.10
2022-08-26T07:00:49.711Z,22.20
2022-08-26T07:03:39.678Z,22.10
2022-08-26T07:06:27.357Z,20.00
2022-08-26T07:09:12.742Z,22.70
2022-08-26T07:11:59.400Z,23.00
2022-08-26T07:14:47.451Z,23.10
2022-08-26T07:17:33.566Z,23.30
2022-08-26T07:20:19.599Z,23.30
2022-08-26T07:23:04.967Z,23.40
2022-08-26T07:25:55.513Z,23.50
2022-08-26T07:28:41.064Z,23.70
2022-08-26T07:31:27.818Z,23.80
2022-08-26T07:34:14.883Z,25.60
2022-08-26T07:37:00.801Z,24.40
2022-08-26T07:39:47.291Z,24.50
2022-08-26T07:42:33.708Z,24.70
2022-08-26T07:45:20.556Z,25.00
2022-08-26T07:48:06.453Z,25.10
2022-08-26T07:50:53.639Z,25.30
2022-08-26T07:53:39.907Z,25.40
2022-08-26T07:56:25.481Z,25.40
2022-08-26T07:59:13.394Z,25.50
2022-08-26T08:01:59.790Z,25.60
2022-08-26T08:04:45.471Z,26.00
2022-08-26T08:07:38.550Z,26.20
2022-08-26T08:10:31.691Z,26.50
2022-08-26T08:13:18.629Z,26.70
2022-08-26T08:16:07.678Z,26.80
2022-08-26T08:18:58.481Z,25.30
2022-08-26T08:21:44.819Z,26.90
2022-08-26T08:24:30.354Z,26.70
2022-08-26T08:27:17.201Z,26.70
2022-08-26T08:30:07.665Z,26.80
2022-08-26T08:32:54.567Z,27.00
2022-08-26T08:35:40.253Z,26.70
2022-08-26T08:38:26.411Z,29.40
2022-08-26T08:41:41.336Z,27.10
2022-08-26T08:47:45.064Z,27.30
2022-08-26T08:50:32.525Z,27.40
2022-08-26T08:53:29.448Z,27.30
2022-08-26T08:56:35.210Z,27.40
2022-08-26T08:59:34.144Z,27.30
2022-08-26T09:02:46.486Z,27.60
2022-08-26T09:05:43.389Z,27.90
2022-08-26T09:08:35.757Z,28.10
2022-08-26T09:11:21.961Z,28.20
2022-08-26T09:14:09.458Z,29.50
2022-08-26T09:17:15.790Z,28.20
2022-08-26T09:20:41.028Z,28.20
2022-08-26T09:23:26.873Z,28.30
2022-08-26T09:26:28.742Z,28.20
2022-08-26T09:29:40.898Z,28.00
2022-08-26T09:32:27.051Z,27.90
2022-08-26T09:35:35.930Z,28.00
2022-08-26T09:38:27.914Z,28.20
2022-08-26T09:41:28.003Z,28.50
2022-08-26T09:44:20.682Z,28.90
2022-08-26T09:47:08.703Z,28.70
2022-08-26T09:50:09.911Z,28.50
2022-08-26T09:53:09.912Z,29.10
2022-08-26T09:56:21.218Z,29.40
2022-08-26T09:59:12.158Z,29.50
2022-08-26T10:02:36.205Z,29.60
2022-08-26T10:05:58.864Z,29.40
2022-08-26T10:08:47.831Z,28.10
2022-08-26T10:11:58.974Z,30.00
2022-08-26T10:14:56.153Z,30.40
2022-08-26T10:17:53.221Z,29.90
2022-08-26T10:20:49.223Z,30.00
2022-08-26T10:23:45.340Z,30.30
2022-08-26T10:26:48.541Z,30.40
2022-08-26T10:29:42.670Z,32.90
2022-08-26T10:32:51.637Z,31.90
2022-08-26T10:35:54.068Z,31.00
2022-08-26T10:38:41.018Z,30.80
2022-08-26T10:41:36.275Z,30.70
2022-08-26T10:44:23.735Z,30.80
2022-08-26T10:47:21.530Z,31.00
2022-08-26T10:50:08.140Z,30.50
2022-08-26T10:53:03.821Z,29.20
2022-08-26T10:55:54.234Z,29.00
2022-08-26T10:59:12.555Z,29.00
2022-08-26T11:02:25.153Z,27.70
2022-08-26T11:05:29.477Z,27.80
2022-08-26T11:08:21.854Z,28.50
2022-08-26T11:11:08.281Z,28.50
2022-08-26T11:13:57.081Z,28.50
2022-08-26T11:16:45.419Z,28.60
2022-08-26T11:19:45.590Z,28.40
2022-08-26T11:22:47.918Z,27.90
2022-08-26T11:25:33.565Z,28.00
2022-08-26T11:28:34.625Z,28.00
2022-08-26T11:31:25.565Z,28.30
2022-08-26T11:34:13.884Z,28.30
2022-08-26T11:37:01.144Z,28.20
2022-08-26T11:39:55.170Z,28.10
2022-08-26T11:42:54.260Z,28.10
2022-08-26T11:45:45.504Z,28.10
2022-08-26T11:48:38.273Z,28.30
2022-08-26T11:51:25.044Z,28.70
2022-08-26T11:54:13.709Z,28.60
2022-08-26T11:57:07.827Z,27.70
2022-08-26T11:59:57.842Z,28.00
2022-08-26T12:02:43.072Z,28.10
2022-08-26T12:05:36.241Z,28.50
2022-08-26T12:08:28.123Z,28.80
2022-08-26T12:11:26.061Z,29.30
2022-08-26T12:14:25.908Z,29.50
2022-08-26T12:17:16.792Z,29.60
2022-08-26T12:20:02.393Z,29.90
2022-08-26T12:22:48.019Z,30.10
2022-08-26T12:25:36.273Z,31.00
2022-08-26T12:28:23.173Z,31.10
2022-08-26T12:31:08.563Z,31.10
2022-08-26T12:33:56.235Z,30.80
2022-08-26T12:36:52.932Z,30.90
2022-08-26T12:39:41.117Z,30.80
2022-08-26T12:42:42.382Z,30.50
2022-08-26T12:45:29.440Z,31.10
2022-08-26T12:48:26.336Z,30.50
2022-08-26T12:51:22.610Z,30.60
2022-08-26T12:54:14.203Z,30.70
2022-08-26T12:57:10.277Z,30.80
2022-08-26T13:00:36.258Z,30.70
2022-08-26T13:03:34.133Z,30.70
2022-08-26T13:06:22.630Z,30.50
2022-08-26T13:09:07.952Z,30.40
2022-08-26T13:11:53.423Z,30.60
2022-08-26T13:14:40.492Z,30.80
2022-08-26T13:17:28.163Z,33.70
2022-08-26T13:20:13.677Z,31.10
2022-08-26T13:22:59.530Z,31.20
2022-08-26T13:25:45.212Z,31.20
2022-08-26T13:28:30.813Z,31.20
2022-08-26T13:31:16.762Z,31.30
2022-08-26T13:34:04.027Z,31.40
2022-08-26T13:36:51.959Z,31.30
2022-08-26T13:39:38.062Z,31.20
2022-08-26T13:42:23.511Z,30.60
2022-08-26T13:45:10.579Z,30.20
2022-08-26T13:47:56.048Z,30.30
2022-08-26T13:50:41.873Z,30.30
2022-08-26T13:53:29.453Z,30.30
2022-08-26T13:56:15.395Z,30.40
2022-08-26T13:59:01.705Z,30.30
2022-08-26T14:01:47.481Z,29.90
2022-08-26T14:04:32.870Z,29.80
2022-08-26T14:07:18.358Z,33.40
2022-08-26T14:10:03.978Z,29.80
2022-08-26T14:12:50.220Z,29.80
2022-08-26T14:15:38.141Z,29.60
2022-08-26T14:18:29.502Z,29.00
2022-08-26T14:32:27.101Z,30.70
2022-08-26T14:35:19.433Z,30.80
2022-08-26T14:38:04.583Z,31.70
2022-08-26T14:40:49.857Z,31.10
2022-08-26T14:43:35.754Z,29.90
2022-08-26T14:46:21.084Z,30.00
2022-08-26T14:49:10.376Z,31.60
2022-08-26T14:51:56.438Z,32.50
2022-08-26T14:54:41.794Z,31.20
2022-08-26T14:57:27.304Z,31.10
2022-08-26T15:00:13.273Z,29.10
2022-08-26T15:02:58.980Z,28.40
2022-08-26T15:19:51.122Z,26.50
2022-08-26T15:22:42.265Z,26.40
2022-08-26T15:36:34.428Z,26.10
2022-08-26T15:50:57.663Z,27.00
2022-08-26T15:56:32.535Z,26.50
2022-08-26T15:59:21.424Z,26.20
2022-08-26T16:02:07.521Z,26.20
2022-08-26T16:16:01.314Z,26.20
2022-08-26T16:24:27.138Z,26.20
2022-08-26T16:30:01.728Z,26.00
2022-08-26T16:35:33.259Z,25.80
2022-08-26T16:41:05.831Z,25.70
2022-08-26T16:49:24.954Z,25.30
2022-08-26T16:52:11.476Z,25.30
2022-08-26T16:54:59.790Z,25.10
2022-08-26T17:00:34.487Z,24.90
2022-08-26T17:03:20.194Z,24.90
2022-08-26T17:14:24.992Z,24.80
2022-08-26T17:19:57.016Z,24.70
2022-08-26T17:22:47.105Z,24.60
2022-08-26T17:31:06.243Z,24.60
2022-08-26T17:33:53.930Z,24.60
2022-08-26T17:36:39.667Z,24.60
2022-08-26T17:44:57.596Z,24.40
2022-08-26T17:47:44.050Z,24.40
2022-08-26T17:56:07.794Z,23.90
2022-08-26T17:58:56.869Z,23.70
2022-08-26T18:21:13.057Z,23.30
2022-08-26T18:26:48.785Z,23.20
2022-08-26T18:40:39.877Z,22.90
2022-08-26T18:48:57.281Z,23.10
2022-08-26T18:51:43.533Z,23.20
2022-08-26T19:00:01.995Z,23.00
2022-08-26T19:11:14.469Z,22.90
2022-08-26T19:14:01.723Z,22.90
2022-08-26T19:16:48.782Z,22.90
2022-08-26T19:19:34.636Z,22.80
2022-08-26T19:25:05.993Z,22.70
2022-08-26T19:30:42.140Z,22.80
2022-08-26T19:33:28.269Z,22.80
2022-08-26T19:36:19.850Z,22.90
2022-08-26T19:47:44.419Z,23.10
2022-08-26T19:50:32.482Z,22.90
2022-08-26T19:58:51.377Z,22.70
2022-08-26T20:12:42.099Z,22.80
2022-08-26T20:24:17.768Z,22.40
2022-08-26T20:27:07.660Z,22.40
2022-08-26T20:29:55.401Z,22.40
2022-08-26T20:32:41.667Z,22.20
2022-08-26T20:46:34.719Z,22.20
2022-08-26T21:11:34.190Z,21.60
2022-08-26T21:19:52.007Z,21.70
2022-08-26T21:39:14.287Z,21.50
2022-08-26T21:58:45.979Z,21.50
2022-08-26T22:01:34.721Z,21.50
2022-08-26T22:04:21.630Z,21.30
2022-08-26T22:21:01.811Z,21.10
2022-08-26T22:29:20.598Z,21.00
2022-08-26T22:40:24.326Z,20.70
2022-08-26T22:54:16.546Z,20.70
2022-08-26T23:10:52.175Z,20.70
2022-08-26T23:13:39.122Z,20.70
2022-08-26T23:19:12.940Z,20.80
2022-08-26T23:30:23.271Z,20.60
2022-08-26T23:55:37.583Z,20.50
